Time;durP1;ratioP1;P1;durP2;ratioP2;P2;SDS_P1;SDS_P2;PMS_P1;PMS_P2;Temp;Humidity;BMP_temperature;BMP_pressure;BME280_temperature;BME280_humidity;BME280_pressure;Samples;Min_cycle;Max_cycle;Signal;HPM_P1;HPM_P2
2023/10/09 00:01:51;;;;;;;26.92;20.27;;;;;;;14.87;100.00;101874.66;5014083;28;20113;-48
2023/10/09 00:04:17;;;;;;;31.63;21.95;;;;;;;14.81;100.00;101861.59;5009085;28;20134;-48
2023/10/09 00:06:43;;;;;;;32.78;20.90;;;;;;;14.66;100.00;101832.97;5018304;28;20120;-48
2023/10/09 00:11:56;;;;;;;27.80;19.67;;;;;;;14.79;100.00;101879.34;5012542;28;20436;-48
2023/10/09 00:14:26;;;;;;;26.77;18.90;;;;;;;14.87;100.00;101874.66;5013932;28;20450;-49
2023/10/09 00:17:00;;;;;;;24.52;17.70;;;;;;;14.81;100.00;101866.91;5013626;28;20445;-52
2023/10/09 00:19:33;;;;;;;24.42;17.10;;;;;;;14.65;100.00;101807.41;5013975;28;20439;-53
2023/10/09 00:22:04;;;;;;;22.38;16.75;;;;;;;15.10;100.00;101866.78;5013776;28;20080;-49
2023/10/09 00:24:31;;;;;;;18.75;14.93;;;;;;;15.23;100.00;101869.00;5028303;28;20053;-50
2023/10/09 00:27:11;;;;;;;21.88;15.20;;;;;;;15.18;100.00;101850.56;5012289;28;20030;-53
2023/10/09 00:29:42;;;;;;;22.05;15.65;;;;;;;14.99;100.00;101807.94;5016760;28;20041;-55
2023/10/09 00:32:15;;;;;;;19.95;15.05;;;;;;;15.17;100.00;101817.03;5013859;28;20065;-51
2023/10/09 00:34:40;;;;;;;22.42;14.93;;;;;;;15.52;100.00;101876.81;5013411;28;20476;-51
2023/10/09 00:37:23;;;;;;;17.25;13.70;;;;;;;15.56;100.00;101868.69;5019154;28;20084;-51
2023/10/09 00:39:55;;;;;;;20.65;14.15;;;;;;;15.65;100.00;101864.81;5009767;28;20092;-55
2023/10/09 00:42:32;;;;;;;18.70;12.70;;;;;;;15.56;100.00;101849.22;4998728;28;20169;-48
2023/10/09 00:45:03;;;;;;;14.77;11.75;;;;;;;15.75;100.00;101864.44;5011031;28;20109;-50
2023/10/09 00:47:34;;;;;;;18.27;12.20;;;;;;;15.38;100.00;101795.00;5011539;28;20069;-52
2023/10/09 00:50:52;;;;;;;21.85;13.77;;;;;;;15.83;100.00;101864.13;5013254;28;20034;-53
2023/10/09 00:53:09;;;;;;;16.25;11.10;;;;;;;15.87;100.00;101865.75;4998344;28;20042;-54
2023/10/09 00:55:44;;;;;;;17.30;11.63;;;;;;;15.89;100.00;101853.28;5013076;28;20469;-55
2023/10/09 00:58:14;;;;;;;15.90;10.27;;;;;;;15.51;100.00;101776.91;5027437;28;20380;-50
2023/10/09 01:00:46;;;;;;;15.65;10.77;;;;;;;15.90;100.00;101855.03;5012977;28;20037;-49
2023/10/09 01:03:22;;;;;;;17.50;10.95;;;;;;;15.90;100.00;101840.88;5013264;28;20062;-50
2023/10/09 01:05:58;;;;;;;12.27;9.30;;;;;;;15.93;100.00;101830.13;5013185;28;20033;-54
2023/10/09 01:08:31;;;;;;;19.38;10.15;;;;;;;14.81;100.00;101646.91;5024585;28;20030;-49
2023/10/09 01:11:09;;;;;;;17.80;9.30;;;;;;;15.97;100.00;101832.59;5019373;28;20500;-53
2023/10/09 01:16:16;;;;;;;;;;;;;;;16.02;100.00;101822.69;5013421;28;20038;-49
2023/10/09 01:19:06;;;;;;;15.85;8.18;;;;;;;16.09;100.00;101817.97;5011014;28;19921;-49
2023/10/09 01:21:31;;;;;;;10.65;8.20;;;;;;;16.10;100.00;101814.41;5008155;28;20031;-50
2023/10/09 01:24:31;;;;;;;12.07;8.10;;;;;;;15.95;100.00;101799.06;5001967;28;20053;-52
2023/10/09 01:26:49;;;;;;;11.82;6.90;;;;;;;15.65;100.00;101732.97;5013463;28;20050;-57
2023/10/09 01:29:27;;;;;;;11.48;7.13;;;;;;;16.08;100.00;101798.50;5012600;28;20477;-50
2023/10/09 01:32:04;;;;;;;12.05;6.88;;;;;;;15.73;100.00;101725.56;5012396;28;20481;-48
2023/10/09 01:37:05;;;;;;;13.55;6.82;;;;;;;15.84;100.00;101722.50;5012758;28;20042;-54
2023/10/09 01:39:30;;;;;;;11.60;6.68;;;;;;;16.10;100.00;101764.81;5012448;28;20037;-50
2023/10/09 01:42:05;;;;;;;13.50;7.05;;;;;;;16.23;100.00;101779.31;5010020;28;20034;-51
2023/10/09 01:44:34;;;;;;;10.15;6.88;;;;;;;15.68;100.00;101695.69;5010536;28;20058;-52
2023/10/09 01:47:07;;;;;;;13.52;7.00;;;;;;;16.27;100.00;101806.63;4999883;28;20040;-54
2023/10/09 01:49:35;;;;;;;11.90;7.03;;;;;;;16.27;100.00;101803.97;5026778;28;20036;-55
2023/10/09 01:52:09;;;;;;;12.02;7.07;;;;;;;15.93;100.00;101746.03;5012327;28;20532;-54
2023/10/09 01:54:39;;;;;;;10.55;5.90;;;;;;;16.20;100.00;101791.84;5012258;28;20537;-55
2023/10/09 01:57:09;;;;;;;12.18;6.57;;;;;;;16.16;100.00;101798.22;5026931;28;20117;-49
2023/10/09 01:59:38;;;;;;;10.02;6.75;;;;;;;15.70;100.00;101716.91;5026994;28;20388;-52
2023/10/09 02:02:12;;;;;;;9.45;6.57;;;;;;;15.75;100.00;101729.06;5009825;28;20129;-54
2023/10/09 02:04:40;;;;;;;7.88;5.72;;;;;;;16.11;100.00;101784.28;5010424;28;20040;-55
2023/10/09 02:07:08;;;;;;;9.23;5.68;;;;;;;15.69;100.00;101712.50;5012238;28;20110;-49
2023/10/09 02:09:34;;;;;;;12.23;6.65;;;;;;;16.09;100.00;101779.00;5011903;28;20041;-52
2023/10/09 02:12:00;;;;;;;10.73;6.50;;;;;;;15.71;100.00;101714.16;5012349;28;20062;-54
2023/10/09 02:14:26;;;;;;;10.82;6.75;;;;;;;15.62;100.00;101698.59;5010843;28;20477;-48
2023/10/09 02:17:12;;;;;;;10.15;6.80;;;;;;;16.00;100.00;101757.25;5011937;28;20030;-50
2023/10/09 02:19:40;;;;;;;8.70;6.15;;;;;;;16.00;100.00;101778.50;5010547;28;20073;-52
2023/10/09 02:22:14;;;;;;;9.90;6.07;;;;;;;15.89;100.00;101739.09;5011746;28;20481;-51
2023/10/09 02:24:51;;;;;;;10.85;6.65;;;;;;;15.62;100.00;101690.63;5011748;28;20468;-49
2023/10/09 02:27:39;;;;;;;14.18;7.80;;;;;;;15.55;100.00;101677.69;5012023;28;20076;-48
2023/10/09 02:30:15;;;;;;;13.07;6.38;;;;;;;16.17;100.00;101774.25;5010760;28;20038;-49
2023/10/09 02:32:42;;;;;;;12.90;6.00;;;;;;;16.09;100.00;101747.13;5010077;28;20401;-54
2023/10/09 02:35:35;;;;;;;12.90;6.80;;;;;;;15.96;100.00;101715.84;5034820;28;20040;-47
2023/10/09 02:37:59;;;;;;;9.38;6.18;;;;;;;16.11;100.00;101736.47;5012500;28;20050;-53
2023/10/09 02:40:33;;;;;;;10.55;6.03;;;;;;;16.39;100.00;101768.06;5009800;28;20405;-49
2023/10/09 02:42:58;;;;;;;9.10;6.55;;;;;;;16.21;100.00;101743.97;5010975;28;20682;-49
2023/10/09 02:45:28;;;;;;;12.15;5.80;;;;;;;16.41;100.00;101774.16;5009931;28;20062;-53
2023/10/09 02:47:55;;;;;;;10.35;6.25;;;;;;;15.95;100.00;101680.44;5011232;28;20326;-54
2023/10/09 02:50:21;;;;;;;9.10;5.68;;;;;;;16.48;100.00;101757.91;5016464;28;20133;-52
2023/10/09 02:52:52;;;;;;;8.35;5.75;;;;;;;16.14;100.00;101691.19;5009354;28;20045;-57
2023/10/09 02:55:26;;;;;;;9.82;6.20;;;;;;;16.17;100.00;101685.75;5010624;28;20068;-52
2023/10/09 02:58:04;;;;;;;9.55;5.68;;;;;;;16.61;100.00;101747.63;5011215;28;20088;-52
2023/10/09 03:00:31;;;;;;;11.65;6.40;;;;;;;16.61;100.00;101751.16;5012385;28;20038;-52
2023/10/09 03:02:58;;;;;;;11.13;6.40;;;;;;;16.43;100.00;101719.19;5014253;28;20068;-55
2023/10/09 03:05:28;;;;;;;10.63;6.47;;;;;;;16.58;100.00;101745.13;5013169;28;20334;-49
2023/10/09 03:07:54;;;;;;;12.00;6.10;;;;;;;16.64;100.00;101740.41;5027508;28;20068;-51
2023/10/09 03:10:22;;;;;;;11.00;6.43;;;;;;;16.72;100.00;101738.25;5014484;28;20045;-51
2023/10/09 03:12:51;;;;;;;16.20;6.63;;;;;;;16.39;100.00;101669.75;5014693;28;20089;-48
2023/10/09 03:15:18;;;;;;;9.00;5.85;;;;;;;16.31;100.00;101657.63;5013247;28;20037;-52
2023/10/09 03:17:44;;;;;;;11.38;5.90;;;;;;;16.46;100.00;101681.84;5029490;28;20088;-52
2023/10/09 03:20:13;;;;;;;8.63;6.22;;;;;;;16.46;100.00;101689.81;5014009;28;20167;-52
2023/10/09 03:22:39;;;;;;;10.13;6.07;;;;;;;16.87;100.00;101750.91;5012896;28;20129;-49
2023/10/09 03:25:12;;;;;;;10.82;5.95;;;;;;;16.92;100.00;101763.13;5024652;28;20084;-52
2023/10/09 03:27:47;;;;;;;13.90;6.72;;;;;;;16.49;100.00;101682.56;5015005;28;20034;-48
2023/10/09 03:30:22;;;;;;;8.95;6.50;;;;;;;16.97;100.00;101782.41;5027685;28;20057;-52
2023/10/09 03:32:50;;;;;;;10.30;6.47;;;;;;;16.99;100.00;101801.84;5014357;28;20033;-54
2023/10/09 03:35:33;;;;;;;14.02;6.10;;;;;;;17.02;100.00;101791.03;5013412;28;20026;-53
2023/10/09 03:38:18;;;;;;;12.13;6.13;;;;;;;16.29;100.00;101659.50;5014789;28;20057;-56
2023/10/09 03:40:44;;;;;;;12.50;6.55;;;;;;;17.12;100.00;101790.59;5027431;28;20038;-51
2023/10/09 03:43:11;;;;;;;11.55;6.63;;;;;;;17.06;100.00;101788.19;5014109;28;20042;-50
2023/10/09 03:45:38;;;;;;;12.82;6.82;;;;;;;17.08;100.00;101783.66;5013185;28;20366;-49
2023/10/09 03:48:49;;;;;;;14.05;6.18;;;;;;;17.12;100.00;101779.94;5014060;28;20501;-56
2023/10/09 03:51:06;;;;;;;13.15;5.78;;;;;;;16.77;100.00;101714.16;5000178;28;20053;-53
2023/10/09 03:53:31;;;;;;;7.85;6.63;;;;;;;16.70;100.00;101684.31;5013744;28;20087;-56
2023/10/09 03:55:59;;;;;;;8.88;6.55;;;;;;;16.81;100.00;101707.78;5013011;28;20037;-49
2023/10/09 03:58:27;;;;;;;8.80;6.50;;;;;;;17.23;100.00;101787.44;5012536;28;20045;-51
2023/10/09 04:00:54;;;;;;;10.27;6.35;;;;;;;17.23;100.00;101779.44;5014441;28;20160;-50
2023/10/09 04:03:20;;;;;;;9.68;6.63;;;;;;;16.87;100.00;101716.31;5014241;28;20048;-50
2023/10/09 04:05:45;;;;;;;9.77;6.32;;;;;;;16.86;100.00;101722.59;5029504;28;20030;-50
2023/10/09 04:08:21;;;;;;;10.38;6.10;;;;;;;16.84;100.00;101723.59;5029215;28;20033;-50
2023/10/09 04:10:52;;;;;;;9.40;6.30;;;;;;;16.79;100.00;101736.22;5011046;28;20037;-49
2023/10/09 04:13:22;;;;;;;11.75;6.00;;;;;;;17.22;100.00;101761.78;5013283;28;20073;-50
2023/10/09 04:15:49;;;;;;;8.82;6.88;;;;;;;16.84;100.00;101667.75;5013369;28;20091;-52
2023/10/09 04:18:15;;;;;;;10.50;5.80;;;;;;;17.33;100.00;101744.38;5008689;28;20045;-54
2023/10/09 04:23:16;;;;;;;11.90;7.10;;;;;;;16.99;100.00;101666.19;5013830;28;20041;-52
2023/10/09 04:25:41;;;;;;;12.13;6.20;;;;;;;17.27;100.00;101722.50;5011061;28;20052;-49
2023/10/09 04:28:09;;;;;;;10.30;6.38;;;;;;;17.34;100.00;101753.22;5012956;28;20038;-50
2023/10/09 04:30:42;;;;;;;9.15;5.78;;;;;;;17.35;100.00;101763.81;5012053;28;20226;-51
2023/10/09 04:33:28;;;;;;;14.43;6.55;;;;;;;17.35;100.00;101754.94;5013381;28;20399;-51
2023/10/09 04:36:26;;;;;;;9.55;6.68;;;;;;;17.35;100.00;101765.59;5013709;28;20049;-54
2023/10/09 04:39:14;;;;;;;11.75;5.97;;;;;;;17.29;100.00;101752.56;5013634;28;20631;-49
2023/10/09 04:44:29;;;;;;;11.73;6.18;;;;;;;17.21;100.00;101752.06;5011656;28;20049;-51
2023/10/09 04:52:19;;;;;;;9.98;6.30;;;;;;;16.87;100.00;101712.78;5026750;28;20469;-48
2023/10/09 04:57:30;;;;;;;12.07;6.93;;;;;;;16.83;100.00;101714.75;5013638;28;20092;-53
2023/10/09 04:59:58;;;;;;;12.07;6.40;;;;;;;16.94;100.00;101742.66;5013327;28;20034;-56
2023/10/09 05:02:24;;;;;;;9.02;6.45;;;;;;;17.09;100.00;101769.44;5012765;28;20033;-51
2023/10/09 05:05:01;;;;;;;12.57;6.63;;;;;;;17.01;100.00;101765.41;5010845;28;20038;-49
2023/10/09 05:07:54;;;;;;;8.77;6.07;;;;;;;16.79;100.00;101720.25;5011538;28;20041;-54
2023/10/09 05:10:16;;;;;;;11.40;6.22;;;;;;;17.08;100.00;101783.66;5012851;28;20385;-51
2023/10/09 05:12:47;;;;;;;12.90;7.22;;;;;;;16.90;100.00;101739.25;5012768;28;20033;-52
2023/10/09 05:15:16;;;;;;;11.23;6.65;;;;;;;16.96;100.00;101732.81;5011804;28;20041;-51
2023/10/09 05:17:51;;;;;;;13.13;7.03;;;;;;;17.01;100.00;101741.47;5012787;28;20049;-52
2023/10/09 05:22:57;;;;;;;9.75;5.70;;;;;;;17.46;100.00;101811.22;5012356;28;20042;-53
2023/10/09 05:28:25;;;;;;;11.68;6.43;;;;;;;17.07;100.00;101754.47;5012642;28;20500;-50
2023/10/09 05:31:02;;;;;;;;;;;;;;;17.53;100.00;101814.47;5013177;28;20042;-50
2023/10/09 05:33:27;;;;;;;11.50;6.28;;;;;;;17.42;100.00;101793.66;5012548;28;19918;-51
2023/10/09 05:38:46;;;;;;;7.95;5.47;;;;;;;17.17;100.00;101718.53;5012571;28;20129;-55
2023/10/09 05:47:03;;;;;;;11.95;6.80;;;;;;;17.51;100.00;101773.75;5010343;28;20100;-49
2023/10/09 05:49:32;;;;;;;11.95;7.22;;;;;;;17.49;100.00;101755.16;5011693;28;20476;-49
2023/10/09 05:52:32;;;;;;;11.13;6.45;;;;;;;17.15;100.00;101691.16;5011415;28;20515;-55
2023/10/09 05:55:07;;;;;;;10.05;6.90;;;;;;;17.45;100.00;101753.59;5024802;28;20046;-51
2023/10/09 05:59:24;;;;;;;9.82;6.50;;;;;;;17.40;100.00;101760.91;5016436;28;20029;-53
2023/10/09 06:14:12;;;;;;;9.15;5.60;;;;;;;17.27;100.00;101752.66;5023290;28;20477;-51
2023/10/09 06:16:41;;;;;;;10.50;6.25;;;;;;;17.14;100.00;101745.28;5025863;28;20042;-52
2023/10/09 06:19:26;;;;;;;11.98;6.65;;;;;;;17.39;100.00;101793.81;5011852;28;20179;-54
2023/10/09 06:24:23;;;;;;;15.43;6.63;;;;;;;17.43;100.00;101787.38;5027288;28;20418;-50
2023/10/09 06:27:12;;;;;;;9.50;6.10;;;;;;;17.25;100.00;101756.31;5011139;28;20037;-51
2023/10/09 06:34:52;;;;;;;9.90;6.75;;;;;;;17.36;100.00;101780.63;5012668;28;20662;-51
2023/10/09 06:40:10;;;;;;;11.07;5.95;;;;;;;17.55;100.00;101823.28;5014719;28;20045;-54
2023/10/09 06:45:09;;;;;;;13.05;7.15;;;;;;;17.08;100.00;101767.69;5015286;28;20073;-51
2023/10/09 06:47:41;;;;;;;11.75;7.22;;;;;;;17.50;100.00;101830.56;5019098;28;20045;-53
2023/10/09 06:55:48;;;;;;;13.40;7.45;;;;;;;17.52;100.00;101818.03;5015242;28;20045;-49
2023/10/09 06:58:27;;;;;;;12.95;7.15;;;;;;;17.54;100.00;101814.41;5015442;28;20037;-53
2023/10/09 07:03:51;;;;;;;12.40;6.68;;;;;;;17.54;100.00;101789.59;5023619;28;20108;-50
2023/10/09 07:06:23;;;;;;;13.13;6.63;;;;;;;17.23;100.00;101711.13;5017669;28;20066;-52
2023/10/09 07:09:41;;;;;;;12.45;6.90;;;;;;;17.63;100.00;101751.91;5012290;28;20038;-50
2023/10/09 07:17:15;;;;;;;13.05;7.20;;;;;;;17.60;100.00;101762.72;5015073;28;20041;-57
2023/10/09 07:24:49;;;;;;;13.50;6.15;;;;;;;17.80;100.00;101770.63;5013315;28;20050;-52
2023/10/09 07:27:17;;;;;;;12.63;6.13;;;;;;;17.85;100.00;101777.44;5014913;28;20120;-53
2023/10/09 07:29:48;;;;;;;13.18;6.15;;;;;;;17.85;100.00;101772.13;5012520;28;20560;-48
2023/10/09 07:32:20;;;;;;;11.48;6.85;;;;;;;17.86;100.00;101773.00;5014578;28;20038;-50
2023/10/09 07:34:58;;;;;;;13.43;5.68;;;;;;;18.00;100.00;101783.84;5014676;28;20038;-56
2023/10/09 07:37:30;;;;;;;11.77;5.75;;;;;;;18.08;100.00;101751.50;5032610;28;20705;-54
2023/10/09 07:39:59;;;;;;;11.85;5.85;;;;;;;18.19;100.00;101758.03;5026876;28;20048;-53
2023/10/09 07:42:43;;;;;;;7.95;5.47;;;;;;;18.11;100.00;101730.03;5013440;28;20045;-54
2023/10/09 07:50:49;;;;;;;11.75;6.22;;;;;;;18.51;100.00;101773.31;5025484;28;20460;-53
2023/10/09 07:53:17;;;;;;;10.57;6.00;;;;;;;18.28;100.00;101712.25;5014374;28;20049;-56
2023/10/09 07:55:58;;;;;;;10.13;4.85;;;;;;;18.40;100.00;101729.44;5013217;28;20030;-53
2023/10/09 07:58:27;;;;;;;12.70;6.33;;;;;;;18.78;100.00;101802.16;5012487;28;20038;-55
2023/10/09 08:01:07;;;;;;;10.77;5.03;;;;;;;18.80;100.00;101798.47;5012856;28;20124;-48
2023/10/09 08:03:35;;;;;;;12.85;5.75;;;;;;;18.87;100.00;101817.72;5014061;28;20468;-52
2023/10/09 08:06:37;;;;;;;10.52;5.78;;;;;;;18.91;100.00;101827.28;5027581;28;20038;-55
2023/10/09 08:19:53;;;;;;;12.23;5.65;;;;;;;19.26;100.00;101868.16;5025224;28;20132;-54
2023/10/09 08:24:56;;;;;;;10.20;5.80;;;;;;;19.17;100.00;101815.25;5030397;28;20046;-52
2023/10/09 08:33:39;;;;;;;9.32;5.97;;;;;;;19.78;100.00;101887.66;5011827;28;20069;-53
2023/10/09 08:35:51;;;;;;;10.57;5.25;;;;;;;19.47;100.00;101833.19;5019272;28;20045;-55
2023/10/09 08:38:23;;;;;;;13.00;5.20;;;;;;;19.79;100.00;101905.41;5028874;28;20037;-51
2023/10/09 08:40:50;;;;;;;9.82;5.93;;;;;;;19.88;100.00;101900.41;5030410;28;20029;-56
2023/10/09 08:43:20;;;;;;;10.40;5.18;;;;;;;19.57;100.00;101850.47;5031358;28;20038;-51
2023/10/09 08:45:53;;;;;;;9.35;4.93;;;;;;;19.90;100.00;101884.31;5028315;28;20029;-52
2023/10/09 08:48:19;;;;;;;9.80;5.53;;;;;;;19.90;100.00;101878.97;5031763;28;20112;-49
2023/10/09 08:50:46;;;;;;;8.77;5.50;;;;;;;19.96;100.00;101868.81;5031520;28;20034;-47
2023/10/09 08:53:12;;;;;;;8.90;5.00;;;;;;;20.44;100.00;101932.09;5046785;28;20056;-49
2023/10/09 08:55:38;;;;;;;10.52;5.88;;;;;;;20.58;100.00;101947.34;5031263;28;20041;-54
2023/10/09 08:58:18;;;;;;;8.40;4.63;;;;;;;20.71;100.00;101935.00;5030770;28;20044;-52
2023/10/09 09:00:45;;;;;;;8.27;5.13;;;;;;;20.83;100.00;101941.47;5025973;28;20033;-52
2023/10/09 09:03:16;;;;;;;7.93;4.90;;;;;;;20.74;100.00;101927.69;5046412;28;20048;-51
2023/10/09 09:05:51;;;;;;;12.57;4.88;;;;;;;20.59;100.00;101871.50;5046655;28;20041;-48
2023/10/09 09:08:30;;;;;;;9.57;4.70;;;;;;;21.02;100.00;101953.69;5043570;28;20394;-48
2023/10/09 09:11:11;;;;;;;10.10;4.55;;;;;;;21.00;100.00;101958.28;5031079;28;20037;-50
2023/10/09 09:13:50;;;;;;;9.80;4.70;;;;;;;20.37;100.00;101887.94;5030799;28;20495;-54
2023/10/09 09:16:21;;;;;;;9.80;5.00;;;;;;;20.72;100.00;101969.69;5028262;28;20120;-49
2023/10/09 09:18:51;;;;;;;7.05;4.63;;;;;;;20.69;100.00;101955.66;5031199;28;20091;-48
2023/10/09 09:21:22;;;;;;;9.43;5.15;;;;;;;20.23;100.00;101902.03;5031171;28;20099;-58
2023/10/09 09:26:58;;;;;;;7.68;4.55;;;;;;;20.24;100.00;101878.81;5031114;28;20116;-51
2023/10/09 09:29:24;;;;;;;8.30;5.18;;;;;;;20.78;100.00;101953.28;5029938;28;20033;-49
2023/10/09 09:31:55;;;;;;;8.05;4.72;;;;;;;20.56;100.00;101877.03;5012025;28;20044;-49
2023/10/09 09:34:25;;;;;;;9.18;5.07;;;;;;;20.61;100.00;101891.84;5031089;28;20352;-50
2023/10/09 09:36:56;;;;;;;8.07;5.73;;;;;;;20.90;100.00;101934.81;5029033;28;20041;-57
2023/10/09 09:39:31;;;;;;;8.80;5.00;;;;;;;20.67;100.00;101890.66;5030415;28;20829;-52
2023/10/09 09:42:03;;;;;;;7.45;5.47;;;;;;;20.70;100.00;101890.47;5031144;28;20076;-51
2023/10/09 09:44:34;;;;;;;8.10;5.22;;;;;;;20.83;100.00;101954.84;5031092;28;20052;-53
2023/10/09 09:47:00;;;;;;;6.40;4.03;;;;;;;20.92;100.00;101952.53;5045567;28;20040;-52
2023/10/09 09:49:31;;;;;;;10.85;5.28;;;;;;;20.98;100.00;101956.66;5029130;28;20045;-50
2023/10/09 09:52:02;;;;;;;11.57;5.57;;;;;;;20.42;100.00;101877.84;5043580;28;20045;-51
2023/10/09 09:54:32;;;;;;;8.75;4.90;;;;;;;20.99;100.00;101969.94;5030291;28;20056;-53
2023/10/09 09:57:00;;;;;;;13.63;5.78;;;;;;;20.65;100.00;101895.22;5030490;28;20488;-49
2023/10/09 09:59:28;;;;;;;10.70;4.93;;;;;;;20.99;100.00;101956.53;5030397;28;20033;-54
2023/10/09 10:02:06;;;;;;;11.68;5.00;;;;;;;20.92;100.00;101951.66;5062120;28;20030;-50
2023/10/09 10:04:35;;;;;;;9.43;4.70;;;;;;;20.83;100.00;101952.19;5044880;28;20033;-54
2023/10/09 10:07:08;;;;;;;9.57;5.65;;;;;;;20.55;100.00;101894.88;5027568;28;20043;-49
2023/10/09 10:09:38;;;;;;;8.73;5.43;;;;;;;20.67;100.00;101896.88;5028803;28;20088;-55
2023/10/09 10:12:09;;;;;;;9.02;5.15;;;;;;;21.04;100.00;101950.94;5029108;28;20384;-50
2023/10/09 10:14:58;;;;;;;8.93;5.40;;;;;;;21.14;100.00;101971.75;5030334;28;20045;-46
2023/10/09 10:17:25;;;;;;;9.45;4.93;;;;;;;20.97;100.00;101926.34;5029221;28;20033;-56
2023/10/09 10:22:48;;;;;;;8.50;4.60;;;;;;;21.55;100.00;101958.56;5024026;28;20045;-49
2023/10/09 10:25:32;;;;;;;6.00;4.93;;;;;;;21.84;100.00;101976.44;5018669;28;20049;-47
2023/10/09 10:28:18;;;;;;;9.60;4.85;;;;;;;21.87;100.00;101967.31;5030131;28;20049;-51
2023/10/09 10:30:46;;;;;;;10.50;5.28;;;;;;;21.91;100.00;101962.69;5029966;28;20072;-51
2023/10/09 10:33:22;;;;;;;10.43;5.05;;;;;;;21.47;100.00;101904.63;5028996;28;20033;-52
2023/10/09 10:35:52;;;;;;;8.85;4.72;;;;;;;21.67;100.00;101965.00;5030091;28;20033;-53
2023/10/09 10:38:24;;;;;;;9.20;5.50;;;;;;;21.60;100.00;101977.06;5030466;28;20043;-49
2023/10/09 10:41:11;;;;;;;12.55;5.15;;;;;;;21.12;100.00;101895.16;5043494;28;20048;-50
2023/10/09 10:46:24;;;;;;;7.70;5.18;;;;;;;21.47;100.00;101912.66;5028581;28;20039;-54
2023/10/09 10:48:58;;;;;;;9.18;5.70;;;;;;;21.92;100.00;101916.16;5044688;28;20044;-52
2023/10/09 10:51:34;;;;;;;9.85;4.93;;;;;;;22.69;100.00;101992.53;5044225;28;20057;-53
2023/10/09 10:54:26;;;;;;;11.23;5.28;;;;;;;22.83;100.00;101997.88;5029983;28;20038;-50
2023/10/09 10:56:51;;;;;;;8.65;5.00;;;;;;;22.48;100.00;101926.78;5028495;28;20120;-52
2023/10/09 10:59:22;;;;;;;8.90;5.38;;;;;;;22.38;100.00;101906.91;5029824;28;20045;-53
2023/10/09 11:04:27;;;;;;;10.48;5.25;;;;;;;22.37;100.00;101950.78;5027858;28;20049;-50
2023/10/09 11:06:53;;;;;;;9.23;5.45;;;;;;;22.39;100.00;101978.34;5029691;28;20373;-50
2023/10/09 11:09:21;;;;;;;10.95;5.63;;;;;;;22.36;100.00;101987.47;5029622;28;20037;-51
2023/10/09 11:11:49;;;;;;;14.45;5.22;;;;;;;22.13;100.00;101995.22;5029983;28;20036;-49
2023/10/09 11:14:14;;;;;;;11.30;5.50;;;;;;;22.01;100.00;101958.50;5028708;28;20041;-50
2023/10/09 11:16:47;;;;;;;8.50;4.95;;;;;;;22.28;100.00;101925.41;5028665;28;20473;-54
2023/10/09 11:21:58;;;;;;;10.55;5.28;;;;;;;23.50;100.00;101993.41;5043981;28;20053;-51
2023/10/09 11:24:33;;;;;;;8.77;4.90;;;;;;;23.97;100.00;101933.63;5047477;28;20455;-57
2023/10/09 11:27:05;;;;;;;10.63;5.43;;;;;;;24.62;100.00;101994.38;5032957;28;20065;-54
2023/10/09 11:29:52;;;;;;;11.20;5.32;;;;;;;24.63;100.00;101997.94;5047568;28;20029;-51
2023/10/09 11:32:23;;;;;;;10.45;5.45;;;;;;;24.15;100.00;102002.28;5032121;28;20451;-52
2023/10/09 11:34:52;;;;;;;10.20;4.95;;;;;;;23.84;100.00;102000.00;5031056;28;20034;-49
2023/10/09 11:39:58;;;;;;;9.20;4.72;;;;;;;22.74;100.00;101963.56;5031635;28;20038;-58
2023/10/09 11:45:21;;;;;;;10.95;5.43;;;;;;;22.09;100.00;101965.09;5030917;28;20126;-55
2023/10/09 11:47:59;;;;;;;9.32;6.03;;;;;;;21.82;100.00;101956.91;5031588;28;20484;-51
2023/10/09 11:50:51;;;;;;;10.75;6.00;;;;;;;21.64;100.00;101949.13;5031310;28;20500;-48
2023/10/09 11:53:19;;;;;;;9.25;5.32;;;;;;;21.46;100.00;101958.25;5029088;28;20033;-51
2023/10/09 11:55:49;;;;;;;11.65;5.72;;;;;;;21.00;100.00;101890.50;5031137;28;20037;-50
2023/10/09 11:58:26;;;;;;;10.18;5.68;;;;;;;21.15;100.00;101943.16;5031308;28;20087;-51
2023/10/09 12:01:05;;;;;;;9.27;5.38;;;;;;;21.33;100.00;101959.97;5029476;28;20536;-55
2023/10/09 12:03:31;;;;;;;9.10;5.82;;;;;;;21.48;100.00;101951.03;5030895;28;20037;-49
2023/10/09 12:06:12;;;;;;;11.15;5.65;;;;;;;21.53;100.00;101949.78;5029846;28;20033;-51
2023/10/09 12:08:41;;;;;;;10.00;5.82;;;;;;;21.56;100.00;101932.66;5043261;28;20072;-50
2023/10/09 12:11:11;;;;;;;9.95;5.10;;;;;;;21.37;100.00;101902.56;5046111;28;20065;-58
2023/10/09 12:13:38;;;;;;;7.15;5.18;;;;;;;21.84;100.00;101954.13;5030816;28;20112;-51
2023/10/09 12:16:08;;;;;;;8.65;5.13;;;;;;;21.88;100.00;101909.25;5030951;28;20033;-54
2023/10/09 12:18:34;;;;;;;10.52;5.38;;;;;;;22.78;100.00;101962.41;5030893;28;20069;-56
2023/10/09 12:21:02;;;;;;;12.57;6.00;;;;;;;23.40;100.00;101970.81;5029389;28;20603;-51
2023/10/09 12:23:28;;;;;;;13.27;5.80;;;;;;;23.93;100.00;101967.94;5030602;28;20037;-51
2023/10/09 12:25:56;;;;;;;11.63;6.32;;;;;;;23.71;100.00;101918.47;5028603;28;20054;-56
2023/10/09 12:28:22;;;;;;;10.98;6.18;;;;;;;23.88;100.00;101985.38;5028451;28;20094;-49
2023/10/09 12:30:50;;;;;;;13.30;6.18;;;;;;;23.63;100.00;101975.47;5030196;28;20515;-54
2023/10/09 12:33:16;;;;;;;11.88;5.53;;;;;;;22.92;100.00;101907.78;5029065;28;20445;-50
2023/10/09 12:35:45;;;;;;;11.32;6.03;;;;;;;22.60;100.00;101917.94;5030570;28;20535;-54
2023/10/09 12:38:12;;;;;;;11.57;6.10;;;;;;;22.18;100.00;101923.41;5030532;28;20049;-51
2023/10/09 12:40:40;;;;;;;9.77;5.40;;;;;;;21.57;100.00;101881.63;5045672;28;20033;-52
2023/10/09 12:43:07;;;;;;;7.57;4.95;;;;;;;21.61;100.00;101888.53;5005999;28;20119;-52
2023/10/09 12:45:35;;;;;;;12.93;6.30;;;;;;;22.03;100.00;101948.53;5008994;28;20038;-53
2023/10/09 12:48:03;;;;;;;9.63;5.45;;;;;;;22.09;100.00;101961.53;5005598;28;20034;-53
2023/10/09 12:50:33;;;;;;;10.20;5.00;;;;;;;21.78;100.00;101935.72;5004676;28;20481;-52
2023/10/09 12:53:06;;;;;;;7.97;4.65;;;;;;;21.96;100.00;101968.63;5010299;28;20048;-54
2023/10/09 12:55:35;;;;;;;10.95;5.82;;;;;;;21.61;100.00;101904.63;5010302;28;20037;-55
2023/10/09 12:58:06;;;;;;;9.38;5.10;;;;;;;21.80;100.00;101963.31;5007709;28;20029;-54
2023/10/09 13:00:39;;;;;;;10.30;5.55;;;;;;;21.68;100.00;101964.94;5008533;28;20041;-54
2023/10/09 13:03:16;;;;;;;8.85;4.97;;;;;;;21.44;100.00;101902.13;5013955;28;20045;-57
2023/10/09 13:05:51;;;;;;;7.78;5.43;;;;;;;21.80;100.00;101936.53;5007442;28;20034;-53
2023/10/09 13:08:21;;;;;;;11.60;5.75;;;;;;;21.98;100.00;101956.84;5009506;28;20045;-53
2023/10/09 13:10:47;;;;;;;9.90;5.95;;;;;;;22.11;100.00;101904.16;5008160;28;20030;-55
2023/10/09 13:13:12;;;;;;;10.63;5.80;;;;;;;22.30;100.00;101925.28;5019021;28;20133;-55
2023/10/09 13:15:42;;;;;;;7.13;5.25;;;;;;;22.25;100.00;101898.78;5009642;28;20615;-51
2023/10/09 13:18:08;;;;;;;10.52;5.57;;;;;;;22.48;100.00;101968.88;5009912;28;20042;-55
2023/10/09 13:20:35;;;;;;;13.25;5.97;;;;;;;21.92;100.00;101927.72;5022205;28;20041;-50
2023/10/09 13:23:01;;;;;;;12.63;5.97;;;;;;;21.90;100.00;101964.50;5006558;28;20480;-51
2023/10/09 13:25:32;;;;;;;11.05;5.63;;;;;;;21.92;100.00;101961.75;4999770;28;20140;-50
2023/10/09 13:27:57;;;;;;;11.13;6.45;;;;;;;21.53;100.00;101898.00;5009358;28;20041;-55
2023/10/09 13:30:23;;;;;;;10.80;5.82;;;;;;;21.79;100.00;101958.91;5008238;28;20441;-57
2023/10/09 13:32:51;;;;;;;12.05;6.03;;;;;;;21.93;100.00;101942.84;5007573;28;20056;-51
2023/10/09 13:35:19;;;;;;;13.52;7.05;;;;;;;21.67;100.00;101889.97;5009519;28;20510;-52
2023/10/09 13:37:53;;;;;;;10.85;6.45;;;;;;;22.10;100.00;101947.16;5006544;28;20034;-51
2023/10/09 13:40:28;;;;;;;11.15;5.63;;;;;;;22.12;100.00;101947.94;5004594;28;20493;-51